Home / US / California / Channel Island

Channel Island, CA Weather

Current Report for Wed Nov 22 2017

As of 5:51 AM PST WED NOV 22 2017

63°F 17°cChannel Island weather conditions : Fair

Fair

Barometer: 30.03 inHg. steady

Humidity: 47%

Wind: W. 9mph

Wind Gust: 11mph

Wind Chill: 62°F

Dew Point: 42°F / 6°C steady

Visibility: 10.00mi.

Sunrise: 6:35 AM

Sunset: 4:49 PM

Moon Phase: Waxing Crescent Moon

Daily and Hourly Summary

Loading Channel Island CA Summary and Hourly data for today, tonight and tomorrow...
Forecast for Channel Island, CA:
(Forecast based on TAF for )
0430 AM PST WED NOV 22 2017
  
MORNING AFTERNOON EVENING OVERNIGHT MORNING
Clear Clear Clear Clear Clear
Clear Clear Clear Clear Clear
Original Encoded TAF:
Dated: 0430 AM PST WED NOV 22 2017
2017/11/22 12:30
TAF KOXR 221129Z 2212/2312 05006KT P6SM SKC 
     FM221500 05012KT P6SM SKC 
     FM222100 29010KT P6SM SKC 
     FM230300 VRB03KT P6SM SKC

Temperatures Today (View More Charts)

Channel Island, CA updates by locals

Write your own report, forecast, or traffic update:

Please note by clicking on "Post" you acknowledge that you have read the Terms of Service and the report and/or forecast you are posting is in compliance with such terms. Be respectful. An inappropriate post will be removed by a moderator. If you are not finding the information you want, please be sure to note the navigation tabs just above the breadcrumbs, which are links to other data relating to this city.